Главная страница
METAR-TAF:

METAR-TAF

Аэропорты :

Магнитогорск, Россия

широта: 53-23-36N, долгота: 058-45-24E, высота над уровнем моря: 436 м

Текущие метеонаблюдения

Эта сводка был подготовлена 23 минут назад, в 11:30 UTC
Ветер 2 Узел от северо-северо-восточный
Температура -9°C
Влажность 85%
Давление 1029 hPa
Видимость: 5000 м
Рассеянная облачность на высоте 1700 фута
дымка

METAR: USCM 171130Z 02001MPS 5000 BR BKN017 M09/M11 Q1029 R36/490255 NOSIG RMK QFE733

Время: 16:53 (11:53 UTC)

Прогноз

Эта сводка был подготовлена 53 минут назад, в 11:00 UTC
Прогноз действительный с 17-го 12 UTC до 17-го 21 UTC
Ветер 6 Узел от северный
Видимость: 5000 м
Отдельные облака на высоте 1100 фута
дымка
временами
С 17-го 12 UTC до 17-го 21 UTC
Ветер 4 Узел от северо-северо-восточный
Видимость: 3100 м
небольшой снег, дымка

TAF: USCM 171100Z 1712/1721 35003MPS 5000 BR SCT011 TEMPO 1712/1721 03002MPS 3100 -SN BR

Метеонаблюдения и прогнозы для более 4000 аэропортов (сводки METAR и TAF).

Имеющиеся станции представлены на карте желтыми и красными точками.

Чтобы увидеть название станции, наведите на нее мышь.

Затем щелкните, чтобы увидеть метеонаблюдения и метеопрогнозы.

Управление картой: чтобы увеличить масштаб, щелкните зеленые кнопки с черным крестиком; чтобы уменьшить масштаб, щелкните зеленую кнопку с тире; для просмотра соседних карт щелкайте зеленые стрелки.


METAR-TAF: